createdAt,value
2018-06-11T00:00:59.070Z,0.00
2018-06-11T00:01:59.074Z,0.00
2018-06-11T00:02:59.077Z,0.00
2018-06-11T00:03:59.081Z,0.00
2018-06-11T00:04:59.083Z,0.00
2018-06-11T00:05:59.088Z,0.00
2018-06-11T00:06:59.089Z,0.00
2018-06-11T00:07:59.094Z,0.00
2018-06-11T00:08:59.096Z,0.00
2018-06-11T00:09:59.098Z,0.00
2018-06-11T00:10:59.103Z,0.00
2018-06-11T00:11:59.106Z,0.00
2018-06-11T00:12:59.107Z,0.00
2018-06-11T00:13:59.113Z,0.00
2018-06-11T00:14:59.115Z,0.00
2018-06-11T00:15:59.117Z,0.00
2018-06-11T00:16:59.119Z,0.00
2018-06-11T00:17:59.127Z,0.00
2018-06-11T00:18:59.127Z,0.00
2018-06-11T00:19:59.130Z,0.00
2018-06-11T00:20:59.132Z,0.00
2018-06-11T00:21:59.136Z,0.00
2018-06-11T00:22:59.149Z,0.00
2018-06-11T00:23:59.141Z,0.00
2018-06-11T00:24:59.143Z,0.00
2018-06-11T00:25:59.146Z,0.00
2018-06-11T00:26:59.150Z,0.00
2018-06-11T00:27:59.153Z,0.00
2018-06-11T00:28:59.155Z,0.00
2018-06-11T00:29:59.163Z,0.00
2018-06-11T00:30:59.162Z,0.00
2018-06-11T00:31:59.167Z,0.00
2018-06-11T00:32:59.167Z,0.00
2018-06-11T00:33:59.170Z,0.00
2018-06-11T00:34:59.173Z,0.00
2018-06-11T00:35:59.179Z,0.00
2018-06-11T00:36:59.178Z,0.00
2018-06-11T00:37:59.182Z,0.00
2018-06-11T00:38:59.186Z,0.00
2018-06-11T00:39:59.189Z,0.00
2018-06-11T00:40:59.190Z,0.00
2018-06-11T00:41:59.193Z,0.00
2018-06-11T00:42:59.197Z,0.00
2018-06-11T00:43:59.199Z,0.00
2018-06-11T00:44:59.203Z,0.00
2018-06-11T00:45:59.205Z,0.00
2018-06-11T00:46:59.210Z,0.00
2018-06-11T00:47:59.212Z,0.00
2018-06-11T00:48:59.213Z,0.00
2018-06-11T00:49:59.217Z,0.00
2018-06-11T00:50:59.221Z,0.00
2018-06-11T00:51:59.223Z,0.00
2018-06-11T00:52:59.225Z,0.00
2018-06-11T00:53:59.231Z,0.00
2018-06-11T00:54:59.234Z,0.00
2018-06-11T00:55:59.235Z,0.00
2018-06-11T00:56:59.237Z,0.00
2018-06-11T00:57:59.240Z,0.00
2018-06-11T00:58:59.243Z,0.00
2018-06-11T00:59:59.247Z,0.00
2018-06-11T01:00:59.247Z,0.00
2018-06-11T01:01:59.252Z,0.00
2018-06-11T01:02:59.257Z,0.00
2018-06-11T01:03:59.258Z,0.00
2018-06-11T01:04:59.260Z,0.00
2018-06-11T01:05:59.263Z,0.00
2018-06-11T01:06:59.265Z,0.00
2018-06-11T01:07:59.269Z,0.00
2018-06-11T01:08:59.271Z,0.00
2018-06-11T01:09:59.275Z,0.00
2018-06-11T01:10:59.281Z,0.00
2018-06-11T01:11:59.279Z,0.00
2018-06-11T01:12:59.280Z,0.00
2018-06-11T01:13:59.286Z,0.00
2018-06-11T01:14:59.289Z,0.00
2018-06-11T01:15:59.290Z,0.00
2018-06-11T01:16:59.293Z,0.00
2018-06-11T01:17:59.295Z,0.00
2018-06-11T01:18:59.302Z,0.00
2018-06-11T01:19:59.301Z,0.00
2018-06-11T01:20:59.304Z,0.00
2018-06-11T01:21:59.306Z,0.00
2018-06-11T01:22:59.311Z,0.00
2018-06-11T01:23:59.312Z,0.00
2018-06-11T01:24:59.315Z,0.00
2018-06-11T01:25:59.317Z,0.00
2018-06-11T01:26:59.321Z,0.00
2018-06-11T01:27:59.324Z,0.00
2018-06-11T01:28:59.325Z,0.00
2018-06-11T01:29:59.328Z,0.00
2018-06-11T01:30:59.331Z,0.00
2018-06-11T01:31:59.335Z,0.00
2018-06-11T01:32:59.336Z,0.00
2018-06-11T01:33:59.340Z,0.00
2018-06-11T01:34:59.342Z,0.00
2018-06-11T01:35:59.346Z,0.00
2018-06-11T01:36:59.346Z,0.00
2018-06-11T01:37:59.350Z,0.00
2018-06-11T01:38:59.356Z,0.00
2018-06-11T01:39:59.356Z,0.00
2018-06-11T01:40:59.357Z,0.00
2018-06-11T01:41:59.362Z,0.00
2018-06-11T01:42:59.363Z,0.00
2018-06-11T01:43:59.367Z,0.00
2018-06-11T01:44:59.373Z,0.00
2018-06-11T01:45:59.372Z,0.00
2018-06-11T01:46:59.374Z,0.00
2018-06-11T01:47:59.377Z,0.00
2018-06-11T01:48:59.378Z,0.00
2018-06-11T01:49:59.386Z,0.00
2018-06-11T01:50:59.386Z,0.00
2018-06-11T01:51:59.389Z,0.00
2018-06-11T01:52:59.389Z,0.00
2018-06-11T01:53:59.392Z,0.00
2018-06-11T01:54:59.395Z,0.00
2018-06-11T01:55:59.399Z,0.00
2018-06-11T01:56:59.400Z,0.00
2018-06-11T01:57:59.403Z,0.00
2018-06-11T01:58:59.407Z,0.00
2018-06-11T01:59:59.412Z,0.00
2018-06-11T02:00:59.411Z,0.00
2018-06-11T02:01:59.416Z,0.00
2018-06-11T02:02:59.418Z,0.00
2018-06-11T02:03:59.419Z,0.00
2018-06-11T02:04:59.422Z,0.00
2018-06-11T02:05:59.423Z,0.00
2018-06-11T02:06:59.428Z,0.00
2018-06-11T02:07:59.430Z,0.00
2018-06-11T02:08:59.432Z,0.00
2018-06-11T02:09:59.435Z,0.00
2018-06-11T02:10:59.438Z,0.00
2018-06-11T02:11:59.441Z,0.00
2018-06-11T02:12:59.443Z,0.00
2018-06-11T02:13:59.445Z,0.00
2018-06-11T02:14:59.448Z,0.00
2018-06-11T02:15:59.450Z,0.00
2018-06-11T02:16:59.452Z,0.00
2018-06-11T02:17:59.455Z,0.00
2018-06-11T02:18:59.461Z,0.00
2018-06-11T02:19:59.463Z,0.00
2018-06-11T02:20:59.464Z,0.00
2018-06-11T02:21:59.471Z,0.00
2018-06-11T02:22:59.469Z,0.00
2018-06-11T02:23:59.472Z,0.00
2018-06-11T02:24:59.474Z,0.00
2018-06-11T02:25:59.476Z,0.00
2018-06-11T02:26:59.480Z,0.00
2018-06-11T02:27:59.482Z,0.00
2018-06-11T02:28:59.483Z,0.00
2018-06-11T02:29:59.486Z,0.00
2018-06-11T02:30:59.491Z,0.00
2018-06-11T02:31:59.491Z,0.00
2018-06-11T02:32:59.495Z,0.00
2018-06-11T02:33:59.496Z,0.00
2018-06-11T02:34:59.498Z,0.00
2018-06-11T02:35:59.502Z,0.00
2018-06-11T02:36:59.503Z,0.00
2018-06-11T02:37:59.507Z,0.00
2018-06-11T02:38:59.559Z,0.00
2018-06-11T02:39:59.512Z,0.00
2018-06-11T02:40:59.514Z,0.00
2018-06-11T02:41:59.517Z,0.00
2018-06-11T02:42:59.518Z,0.00
2018-06-11T02:43:59.522Z,0.00
2018-06-11T02:44:59.523Z,0.00
2018-06-11T02:45:59.526Z,0.00
2018-06-11T02:46:59.528Z,0.00
2018-06-11T02:47:59.531Z,4.00
2018-06-11T02:48:59.533Z,4.00
2018-06-11T02:49:59.536Z,0.00
2018-06-11T02:50:59.539Z,0.00
2018-06-11T02:51:59.541Z,4.00
2018-06-11T02:52:59.543Z,4.00
2018-06-11T02:53:59.544Z,0.00
2018-06-11T02:54:59.547Z,4.00
2018-06-11T02:55:59.551Z,4.00
2018-06-11T02:56:59.552Z,4.00
2018-06-11T02:57:59.554Z,8.00
2018-06-11T02:58:59.556Z,4.00
2018-06-11T02:59:59.560Z,8.00
2018-06-11T03:00:59.561Z,8.00
2018-06-11T03:01:59.564Z,8.00
2018-06-11T03:02:59.567Z,8.00
2018-06-11T03:03:59.570Z,8.00
2018-06-11T03:04:59.570Z,12.00
2018-06-11T03:05:59.574Z,12.00
2018-06-11T03:06:59.575Z,16.00
2018-06-11T03:07:59.581Z,20.00
2018-06-11T03:08:59.579Z,20.00
2018-06-11T03:09:59.582Z,24.00
2018-06-11T03:10:59.587Z,28.00
2018-06-11T03:11:59.589Z,28.00
2018-06-11T03:12:59.590Z,28.00
2018-06-11T03:13:59.593Z,32.00
2018-06-11T03:14:59.595Z,40.00
2018-06-11T03:15:59.599Z,44.00
2018-06-11T03:16:59.599Z,48.00
2018-06-11T03:17:59.603Z,52.00
2018-06-11T03:18:59.614Z,52.00
2018-06-11T03:19:59.609Z,60.00
2018-06-11T03:20:59.608Z,68.00
2018-06-11T03:21:59.612Z,72.00
2018-06-11T03:22:59.615Z,76.00
2018-06-11T03:23:59.617Z,80.00
2018-06-11T03:24:59.619Z,88.00
2018-06-11T03:25:59.622Z,96.00
2018-06-11T03:26:59.625Z,104.00
2018-06-11T03:27:59.628Z,112.00
2018-06-11T03:28:59.631Z,120.00
2018-06-11T03:29:59.630Z,128.00
2018-06-11T03:30:59.633Z,136.00
2018-06-11T03:31:59.636Z,148.00
2018-06-11T03:32:59.638Z,156.00
2018-06-11T03:33:59.641Z,164.00
2018-06-11T03:34:59.644Z,172.00
2018-06-11T03:35:59.646Z,184.00
2018-06-11T03:36:59.648Z,192.00
2018-06-11T03:37:59.653Z,200.00
2018-06-11T03:38:59.653Z,212.00
2018-06-11T03:39:59.655Z,224.00
2018-06-11T03:40:59.657Z,236.00
2018-06-11T03:41:59.661Z,244.00
2018-06-11T03:42:59.661Z,252.00
2018-06-11T03:43:59.664Z,264.00
2018-06-11T03:44:59.668Z,276.00
2018-06-11T03:45:59.669Z,284.00
2018-06-11T03:46:59.672Z,296.00
2018-06-11T03:47:59.674Z,304.00
2018-06-11T03:48:59.675Z,308.00
2018-06-11T03:49:59.679Z,316.00
2018-06-11T03:50:59.681Z,328.00
2018-06-11T03:51:59.684Z,336.00
2018-06-11T03:52:59.686Z,348.00
2018-06-11T03:53:59.689Z,360.00
2018-06-11T03:54:59.692Z,372.00
2018-06-11T03:55:59.693Z,380.00
2018-06-11T03:56:59.695Z,388.00
2018-06-11T03:57:59.697Z,396.00
2018-06-11T03:58:59.700Z,404.00
2018-06-11T03:59:59.703Z,416.00
2018-06-11T04:00:59.706Z,424.00
2018-06-11T04:01:59.707Z,428.00
2018-06-11T04:02:59.711Z,440.00
2018-06-11T04:03:59.712Z,448.00
2018-06-11T04:04:59.714Z,456.00
2018-06-11T04:05:59.717Z,468.00
2018-06-11T04:06:59.724Z,472.00
2018-06-11T04:07:59.722Z,484.00
2018-06-11T04:08:59.723Z,492.00
2018-06-11T04:09:59.726Z,500.00
2018-06-11T04:10:59.778Z,512.00
2018-06-11T04:11:59.733Z,524.00
2018-06-11T04:12:59.735Z,540.00
2018-06-11T04:13:59.736Z,552.00
2018-06-11T04:14:59.738Z,564.00
2018-06-11T04:15:59.741Z,576.00
2018-06-11T04:16:59.745Z,584.00
2018-06-11T04:17:59.747Z,596.00
2018-06-11T04:18:59.753Z,604.00
2018-06-11T04:19:59.753Z,616.00
2018-06-11T04:20:59.754Z,624.00
2018-06-11T04:21:59.759Z,636.00
2018-06-11T04:22:59.760Z,648.00
2018-06-11T04:23:59.762Z,660.00
2018-06-11T04:24:59.764Z,672.00
2018-06-11T04:25:59.767Z,684.00
2018-06-11T04:26:59.770Z,696.00
2018-06-11T04:27:59.773Z,712.00
2018-06-11T04:28:59.774Z,724.00
2018-06-11T04:29:59.778Z,732.00
2018-06-11T04:30:59.781Z,748.00
2018-06-11T04:31:59.783Z,768.00
2018-06-11T04:32:59.785Z,780.00
2018-06-11T04:33:59.788Z,800.00
2018-06-11T04:34:59.790Z,812.00
2018-06-11T04:35:59.793Z,828.00
2018-06-11T04:36:59.794Z,844.00
2018-06-11T04:37:59.799Z,860.00
2018-06-11T04:38:59.801Z,880.00
2018-06-11T04:39:59.803Z,896.00
2018-06-11T04:40:59.805Z,904.00
2018-06-11T04:41:59.809Z,920.00
2018-06-11T04:42:59.812Z,936.00
2018-06-11T04:43:59.814Z,940.00
2018-06-11T04:44:59.816Z,948.00
2018-06-11T04:45:59.822Z,956.00
2018-06-11T04:46:59.822Z,964.00
2018-06-11T04:47:59.826Z,972.00
2018-06-11T04:48:59.827Z,980.00
2018-06-11T04:49:59.830Z,988.00
2018-06-11T04:50:59.835Z,996.00
2018-06-11T04:51:59.836Z,1008.00
2018-06-11T04:52:59.839Z,1020.00
2018-06-11T04:53:59.840Z,1036.00
2018-06-11T04:54:59.844Z,1044.00
2018-06-11T04:55:59.848Z,1060.00
2018-06-11T04:56:59.849Z,1072.00
2018-06-11T04:57:59.853Z,1052.00
2018-06-11T04:58:59.856Z,1056.00
2018-06-11T04:59:59.858Z,1116.00
2018-06-11T05:00:59.859Z,1128.00
2018-06-11T05:01:59.866Z,1148.00
2018-06-11T05:02:59.867Z,1136.00
2018-06-11T05:03:59.869Z,1160.00
2018-06-11T05:04:59.871Z,1180.00
2018-06-11T05:05:59.875Z,1220.00
2018-06-11T05:06:59.877Z,1240.00
2018-06-11T05:07:59.926Z,1264.00
2018-06-11T05:08:59.884Z,1280.00
2018-06-11T05:09:59.904Z,1296.00
2018-06-11T05:10:59.891Z,1320.00
2018-06-11T05:11:59.894Z,1332.00
2018-06-11T05:12:59.895Z,1348.00
2018-06-11T05:13:59.898Z,1360.00
2018-06-11T05:14:59.900Z,1384.00
2018-06-11T05:15:59.904Z,1404.00
2018-06-11T05:16:59.906Z,1432.00
2018-06-11T05:17:59.909Z,1444.00
2018-06-11T05:18:59.914Z,1464.00
2018-06-11T05:19:59.916Z,1488.00
2018-06-11T05:20:59.919Z,1504.00
2018-06-11T05:21:59.922Z,1524.00
2018-06-11T05:22:59.924Z,1548.00
2018-06-11T05:23:59.928Z,1560.00
2018-06-11T05:24:59.933Z,1584.00
2018-06-11T05:25:59.940Z,1608.00
2018-06-11T05:26:59.938Z,1624.00
2018-06-11T05:27:59.948Z,1648.00
2018-06-11T05:28:59.944Z,1668.00
2018-06-11T05:29:59.946Z,1684.00
2018-06-11T05:30:59.951Z,1700.00
2018-06-11T05:31:59.953Z,1716.00
2018-06-11T05:32:59.956Z,1744.00
2018-06-11T05:33:59.961Z,1764.00
2018-06-11T05:34:59.965Z,1784.00
2018-06-11T05:35:59.967Z,1812.00
2018-06-11T05:39:00.417Z,1884.00
2018-06-11T05:40:00.425Z,1908.00
2018-06-11T05:41:00.424Z,1928.00
2018-06-11T05:42:00.485Z,1952.00
2018-06-11T05:43:00.458Z,1972.00
2018-06-11T05:44:00.507Z,1992.00
2018-06-11T05:45:00.437Z,1996.00
2018-06-11T05:46:00.440Z,2028.00
2018-06-11T05:47:00.534Z,2048.00
2018-06-11T05:48:00.527Z,2072.00
2018-06-11T05:49:00.517Z,2108.00
2018-06-11T05:50:00.543Z,2116.00
2018-06-11T05:51:00.509Z,2108.00
2018-06-11T05:52:00.480Z,2140.00
2018-06-11T05:53:00.516Z,2188.00
2018-06-11T05:54:00.504Z,2216.00
2018-06-11T05:55:00.665Z,2236.00
2018-06-11T05:56:00.476Z,2264.00
2018-06-11T05:57:00.480Z,2284.00
2018-06-11T05:58:00.483Z,2284.00
2018-06-11T05:59:00.487Z,2320.00
2018-06-11T06:00:00.490Z,2308.00
2018-06-11T06:01:00.494Z,2268.00
2018-06-11T06:02:00.497Z,2300.00
2018-06-11T06:03:00.502Z,2404.00
2018-06-11T06:04:00.564Z,2464.00
2018-06-11T06:05:00.515Z,2488.00
2018-06-11T06:06:00.514Z,2512.00
2018-06-11T06:07:00.517Z,2544.00
2018-06-11T06:08:00.556Z,2584.00
2018-06-11T06:09:00.544Z,2672.00
2018-06-11T06:10:00.544Z,2736.00
2018-06-11T06:11:00.534Z,2788.00
2018-06-11T06:12:00.537Z,2832.00
2018-06-11T06:13:00.541Z,2868.00
2018-06-11T06:14:00.550Z,2864.00
2018-06-11T06:15:00.550Z,2888.00
2018-06-11T06:16:00.553Z,2928.00
2018-06-11T06:17:00.689Z,2940.00
2018-06-11T06:18:00.700Z,2904.00
2018-06-11T06:19:00.604Z,2944.00
2018-06-11T06:20:00.667Z,3184.00
2018-06-11T06:21:00.656Z,3208.00
2018-06-11T06:22:00.624Z,3296.00
2018-06-11T06:23:00.582Z,3344.00
2018-06-11T06:24:00.588Z,3436.00
2018-06-11T06:25:00.590Z,3456.00
2018-06-11T06:26:00.594Z,3236.00
2018-06-11T06:27:00.599Z,3300.00
2018-06-11T06:28:00.604Z,3140.00
2018-06-11T06:29:00.866Z,3060.00
2018-06-11T06:30:00.637Z,2736.00
2018-06-11T06:31:00.619Z,3436.00
2018-06-11T06:32:00.627Z,3424.00
2018-06-11T06:33:00.626Z,3280.00
2018-06-11T06:34:00.632Z,3296.00
2018-06-11T06:35:00.639Z,3616.00
2018-06-11T06:36:00.641Z,3732.00
2018-06-11T06:37:00.646Z,3824.00
2018-06-11T06:38:00.649Z,3884.00
2018-06-11T06:39:00.654Z,3956.00
2018-06-11T06:40:00.657Z,3968.00
2018-06-11T06:41:00.668Z,3352.00
2018-06-11T06:42:00.669Z,3260.00
2018-06-11T06:43:00.828Z,3600.00
2018-06-11T06:44:00.771Z,3224.00
2018-06-11T06:45:00.682Z,3752.00
2018-06-11T06:46:00.747Z,3900.00
2018-06-11T06:47:00.763Z,3920.00
2018-06-11T06:48:00.723Z,4056.00
2018-06-11T06:49:00.727Z,4076.00
2018-06-11T06:50:00.722Z,4264.00
2018-06-11T06:51:00.852Z,4276.00
2018-06-11T06:52:00.715Z,4180.00
2018-06-11T06:53:00.720Z,4116.00
2018-06-11T06:54:00.725Z,4036.00
2018-06-11T06:55:00.731Z,3828.00
2018-06-11T06:56:00.737Z,3736.00
2018-06-11T06:57:00.740Z,4084.00
2018-06-11T06:58:00.746Z,4264.00
2018-06-11T06:59:00.751Z,4308.00
2018-06-11T07:00:00.851Z,4320.00
2018-06-11T07:01:00.764Z,4340.00
2018-06-11T07:02:01.037Z,4340.00
2018-06-11T07:03:00.770Z,4412.00
2018-06-11T07:04:00.775Z,4428.00
2018-06-11T07:05:00.782Z,4536.00
2018-06-11T07:06:00.787Z,4524.00
2018-06-11T07:07:00.856Z,4580.00
2018-06-11T07:08:00.821Z,4564.00
2018-06-11T07:09:00.804Z,4640.00
2018-06-11T07:10:00.811Z,4692.00
2018-06-11T07:11:00.833Z,4696.00
2018-06-11T07:12:00.820Z,4652.00
2018-06-11T07:13:00.826Z,4800.00
2018-06-11T07:14:00.835Z,4856.00
2018-06-11T07:15:00.836Z,4900.00
2018-06-11T07:16:00.841Z,4968.00
2018-06-11T07:17:00.884Z,5004.00
2018-06-11T07:18:00.863Z,5076.00
2018-06-11T07:19:00.873Z,5160.00
2018-06-11T07:20:00.898Z,5232.00
2018-06-11T07:21:00.911Z,5276.00
2018-06-11T07:22:00.884Z,5364.00
2018-06-11T07:23:00.885Z,5372.00
2018-06-11T07:24:00.984Z,5500.00
2018-06-11T07:25:00.893Z,5600.00
2018-06-11T07:26:00.898Z,5828.00
2018-06-11T07:27:00.922Z,5980.00
2018-06-11T07:28:00.910Z,16084.00
2018-06-11T07:29:00.916Z,41920.00
2018-06-11T07:30:00.921Z,62464.00
2018-06-11T07:31:00.928Z,77376.00
2018-06-11T07:32:00.935Z,68864.00
2018-06-11T07:33:00.943Z,76224.00
2018-06-11T07:34:00.949Z,80960.00
2018-06-11T07:35:01.011Z,77824.00
2018-06-11T07:36:01.044Z,69024.00
2018-06-11T07:37:00.975Z,75360.00
2018-06-11T07:38:00.985Z,60480.00
2018-06-11T07:39:00.993Z,39104.00
2018-06-11T07:40:01.004Z,30080.00
2018-06-11T07:41:01.051Z,42944.00
2018-06-11T07:42:01.024Z,42688.00
2018-06-11T07:43:01.034Z,30272.00
2018-06-11T07:44:01.050Z,70400.00
2018-06-11T07:45:01.055Z,62240.00
2018-06-11T07:46:01.066Z,42432.00
2018-06-11T07:47:01.078Z,34912.00
2018-06-11T07:48:01.194Z,22336.00
2018-06-11T07:49:01.134Z,27680.00
2018-06-11T07:50:01.169Z,36096.00
2018-06-11T07:51:01.237Z,39744.00
2018-06-11T07:52:01.235Z,52960.00
2018-06-11T07:53:01.147Z,58464.00
2018-06-11T07:54:01.158Z,67328.00
2018-06-11T07:55:01.169Z,59328.00
2018-06-11T07:56:01.182Z,34880.00
2018-06-11T07:57:01.193Z,42944.00
2018-06-11T07:58:01.205Z,43104.00
2018-06-11T07:59:01.241Z,27904.00
2018-06-11T08:00:01.281Z,71776.00
2018-06-11T08:01:01.242Z,74752.00
2018-06-11T08:02:01.255Z,70272.00
2018-06-11T08:03:01.273Z,55712.00
2018-06-11T08:04:01.280Z,72640.00
2018-06-11T08:05:01.309Z,71744.00
2018-06-11T08:06:01.307Z,64864.00
2018-06-11T08:07:01.320Z,65568.00
2018-06-11T08:08:01.333Z,64704.00
2018-06-11T08:09:01.348Z,65984.00
2018-06-11T08:10:01.362Z,65152.00
2018-06-11T08:11:01.558Z,63616.00
2018-06-11T08:12:01.390Z,67840.00
2018-06-11T08:13:01.405Z,64800.00
2018-06-11T08:14:01.419Z,67136.00
2018-06-11T08:15:01.435Z,64576.00
2018-06-11T08:16:01.448Z,63168.00
2018-06-11T08:17:01.463Z,62368.00
2018-06-11T08:18:01.525Z,64544.00
2018-06-11T08:19:01.549Z,67584.00
2018-06-11T08:20:01.612Z,62752.00
2018-06-11T08:21:01.610Z,65824.00
2018-06-11T08:22:01.665Z,66720.00
2018-06-11T08:23:01.565Z,62016.00
2018-06-11T08:24:01.570Z,58176.00
2018-06-11T08:25:01.585Z,62560.00
2018-06-11T08:26:01.600Z,61056.00
2018-06-11T08:27:01.710Z,61728.00
2018-06-11T08:28:01.636Z,63936.00
2018-06-11T08:29:01.646Z,63040.00
2018-06-11T08:30:01.666Z,59328.00
2018-06-11T08:31:01.691Z,62624.00
2018-06-11T08:32:01.693Z,62336.00
2018-06-11T08:33:01.710Z,59776.00
2018-06-11T08:34:01.727Z,59648.00
2018-06-11T08:35:01.742Z,60704.00
2018-06-11T08:36:02.278Z,62304.00
2018-06-11T08:37:01.775Z,60192.00
2018-06-11T08:38:01.799Z,59616.00
2018-06-11T08:39:01.807Z,61728.00
2018-06-11T08:40:01.823Z,58784.00
2018-06-11T08:41:01.838Z,57472.00
2018-06-11T08:42:01.856Z,61248.00
2018-06-11T08:43:01.870Z,62944.00
2018-06-11T08:44:01.894Z,63040.00
2018-06-11T08:45:01.905Z,57696.00
2018-06-11T08:46:01.922Z,53344.00
2018-06-11T08:47:01.937Z,57664.00
2018-06-11T08:48:02.013Z,59360.00
2018-06-11T08:49:02.017Z,59424.00
2018-06-11T08:50:02.105Z,59488.00
2018-06-11T08:51:02.002Z,57440.00
2018-06-11T08:52:02.021Z,55936.00
2018-06-11T08:53:02.037Z,54432.00
2018-06-11T08:54:02.054Z,54016.00
2018-06-11T08:55:02.071Z,54240.00
2018-06-11T08:56:02.088Z,51616.00
2018-06-11T08:57:02.103Z,53984.00
2018-06-11T08:58:02.313Z,56544.00
2018-06-11T08:59:02.134Z,55968.00
2018-06-11T09:00:02.559Z,52576.00
2018-06-11T09:01:02.169Z,54432.00
2018-06-11T09:02:02.184Z,53504.00
2018-06-11T09:03:02.201Z,49952.00
2018-06-11T09:04:02.215Z,51584.00
2018-06-11T09:05:02.234Z,48928.00
2018-06-11T09:06:02.525Z,49216.00
2018-06-11T09:07:02.265Z,52896.00
2018-06-11T09:08:02.284Z,48544.00
2018-06-11T09:09:02.297Z,48160.00
2018-06-11T09:10:02.312Z,46784.00
2018-06-11T09:11:02.328Z,50080.00
2018-06-11T09:12:02.345Z,52032.00
2018-06-11T09:13:02.361Z,48832.00
2018-06-11T09:14:02.377Z,52608.00
2018-06-11T09:15:02.394Z,53856.00
2018-06-11T09:16:02.408Z,50336.00
2018-06-11T09:17:02.426Z,46688.00
2018-06-11T09:18:02.493Z,47104.00
2018-06-11T09:19:02.457Z,47072.00
2018-06-11T09:20:02.474Z,45440.00
2018-06-11T09:21:02.491Z,46144.00
2018-06-11T09:22:02.509Z,46048.00
2018-06-11T09:23:02.528Z,46112.00
2018-06-11T09:24:02.542Z,44768.00
2018-06-11T09:25:02.663Z,42624.00
2018-06-11T09:26:02.576Z,40768.00
2018-06-11T09:27:02.591Z,35168.00
2018-06-11T09:28:02.608Z,33728.00
2018-06-11T09:29:02.624Z,35360.00
2018-06-11T09:30:02.906Z,36384.00
2018-06-11T09:31:02.907Z,33792.00
2018-06-11T09:32:02.936Z,32608.00
2018-06-11T09:33:02.972Z,38336.00
2018-06-11T09:34:02.708Z,38656.00
2018-06-11T09:35:02.724Z,38272.00
2018-06-11T09:36:02.741Z,38688.00
2018-06-11T09:37:02.757Z,36096.00
2018-06-11T09:38:02.773Z,34816.00
2018-06-11T09:39:02.792Z,33920.00
2018-06-11T09:40:02.804Z,30240.00
2018-06-11T09:41:02.820Z,28864.00
2018-06-11T09:42:02.837Z,28416.00
2018-06-11T09:43:02.852Z,23072.00
2018-06-11T09:44:02.889Z,27968.00
2018-06-11T09:45:02.886Z,28736.00
2018-06-11T09:46:02.901Z,27008.00
2018-06-11T09:47:02.915Z,26144.00
2018-06-11T09:48:02.931Z,28384.00
2018-06-11T09:49:02.949Z,30688.00
2018-06-11T09:50:02.963Z,30624.00
2018-06-11T09:51:02.979Z,26880.00
2018-06-11T09:52:02.994Z,24512.00
2018-06-11T09:53:03.011Z,23328.00
2018-06-11T09:54:03.025Z,27072.00
2018-06-11T09:55:03.051Z,27136.00
2018-06-11T09:56:03.057Z,25984.00
2018-06-11T09:57:03.075Z,23776.00
2018-06-11T09:58:03.087Z,25984.00
2018-06-11T09:59:03.103Z,27360.00
2018-06-11T10:00:03.118Z,25504.00
2018-06-11T10:01:03.230Z,22720.00
2018-06-11T10:02:03.214Z,21696.00
2018-06-11T10:03:03.192Z,17600.00
2018-06-11T10:04:03.261Z,17088.00
2018-06-11T10:05:03.262Z,18080.00
2018-06-11T10:06:03.213Z,21600.00
2018-06-11T10:07:03.226Z,22016.00
2018-06-11T10:08:03.244Z,18528.00
2018-06-11T10:09:03.320Z,19264.00
2018-06-11T10:10:03.274Z,18592.00
2018-06-11T10:11:03.288Z,16544.00
2018-06-11T10:12:03.304Z,15904.00
2018-06-11T10:13:03.320Z,14528.00
2018-06-11T10:14:03.336Z,13856.00
2018-06-11T10:15:03.631Z,12104.00
2018-06-11T10:16:03.364Z,11200.00
2018-06-11T10:17:03.380Z,10808.00
2018-06-11T10:18:03.396Z,10184.00
2018-06-11T10:19:03.444Z,12556.00
2018-06-11T10:20:03.539Z,12508.00
2018-06-11T10:21:03.442Z,14080.00
2018-06-11T10:22:03.454Z,14656.00
2018-06-11T10:23:03.470Z,13640.00
2018-06-11T10:24:03.602Z,13712.00
2018-06-11T10:25:03.495Z,12448.00
2018-06-11T10:26:03.512Z,11236.00
2018-06-11T10:27:03.728Z,10172.00
2018-06-11T10:28:03.538Z,9500.00
2018-06-11T10:29:03.553Z,9140.00
2018-06-11T10:30:03.567Z,9372.00
2018-06-11T10:31:03.580Z,9312.00
2018-06-11T10:32:03.595Z,9280.00
2018-06-11T10:33:03.611Z,9036.00
2018-06-11T10:34:03.624Z,8908.00
2018-06-11T10:35:03.785Z,8488.00
2018-06-11T10:36:03.653Z,8340.00
2018-06-11T10:37:03.669Z,8240.00
2018-06-11T10:38:03.685Z,8484.00
2018-06-11T10:39:03.919Z,8384.00
2018-06-11T10:40:03.715Z,8384.00
2018-06-11T10:41:03.727Z,8336.00
2018-06-11T10:42:03.743Z,7484.00
2018-06-11T10:43:03.775Z,7892.00
2018-06-11T10:44:03.774Z,8072.00
2018-06-11T10:45:03.799Z,8028.00
2018-06-11T10:46:03.802Z,7908.00
2018-06-11T10:47:03.820Z,7596.00
2018-06-11T10:48:03.833Z,7276.00
2018-06-11T10:49:03.848Z,7076.00
2018-06-11T10:50:03.873Z,7260.00
2018-06-11T10:51:03.877Z,7416.00
2018-06-11T10:52:03.894Z,7552.00
2018-06-11T10:53:03.909Z,7484.00
2018-06-11T10:54:03.925Z,7460.00
2018-06-11T10:55:03.937Z,7368.00
2018-06-11T10:56:03.953Z,7528.00
2018-06-11T10:57:03.969Z,7400.00
2018-06-11T10:58:04.053Z,7500.00
2018-06-11T10:59:04.060Z,7508.00
2018-06-11T11:00:04.136Z,7492.00
2018-06-11T11:01:04.028Z,7264.00
2018-06-11T11:02:04.040Z,7160.00
2018-06-11T11:03:04.053Z,7344.00
2018-06-11T11:04:04.067Z,7364.00
2018-06-11T11:05:04.082Z,7492.00
2018-06-11T11:06:04.097Z,7500.00
2018-06-11T11:07:04.109Z,7588.00
2018-06-11T11:08:04.227Z,7556.00
2018-06-11T11:09:04.138Z,7632.00
2018-06-11T11:10:04.157Z,7608.00
2018-06-11T11:11:04.167Z,7688.00
2018-06-11T11:12:04.182Z,7680.00
2018-06-11T11:13:04.213Z,7764.00
2018-06-11T11:14:04.210Z,7736.00
2018-06-11T11:15:04.335Z,7996.00
2018-06-11T11:16:04.237Z,7816.00
2018-06-11T11:17:04.255Z,7852.00
2018-06-11T11:18:04.267Z,7816.00
2018-06-11T11:19:04.278Z,7864.00
2018-06-11T11:20:04.293Z,7764.00
2018-06-11T11:21:04.435Z,7568.00
2018-06-11T11:22:04.321Z,7424.00
2018-06-11T11:23:04.334Z,7464.00
2018-06-11T11:24:04.445Z,7488.00
2018-06-11T11:25:04.362Z,7372.00
2018-06-11T11:26:04.440Z,7144.00
2018-06-11T11:27:04.390Z,7340.00
2018-06-11T11:28:04.404Z,7416.00
2018-06-11T11:29:04.417Z,7644.00
2018-06-11T11:30:04.431Z,7432.00
2018-06-11T11:31:04.443Z,7488.00
2018-06-11T11:32:04.456Z,7872.00
2018-06-11T11:33:04.476Z,7368.00
2018-06-11T11:34:04.482Z,7464.00
2018-06-11T11:35:04.496Z,7396.00
2018-06-11T11:36:04.508Z,7480.00
2018-06-11T11:37:04.522Z,7712.00
2018-06-11T11:38:04.736Z,7748.00
2018-06-11T11:39:04.673Z,7908.00
2018-06-11T11:40:05.082Z,8156.00
2018-06-11T11:41:04.574Z,8288.00
2018-06-11T11:42:04.586Z,8104.00
2018-06-11T11:43:04.598Z,8176.00
2018-06-11T11:44:04.611Z,7924.00
2018-06-11T11:45:05.268Z,7856.00
2018-06-11T11:46:04.638Z,7648.00
2018-06-11T11:47:04.649Z,7316.00
2018-06-11T11:48:04.922Z,6884.00
2018-06-11T11:49:04.796Z,6788.00
2018-06-11T11:50:04.687Z,6300.00
2018-06-11T11:51:04.725Z,6360.00
2018-06-11T11:52:04.712Z,6052.00
2018-06-11T11:53:04.723Z,5752.00
2018-06-11T11:54:04.737Z,5680.00
2018-06-11T11:55:04.749Z,5472.00
2018-06-11T11:56:04.764Z,5352.00
2018-06-11T11:57:04.774Z,5116.00
2018-06-11T11:58:04.785Z,4984.00
2018-06-11T11:59:04.796Z,4960.00
2018-06-11T12:00:04.816Z,4904.00
2018-06-11T12:01:04.844Z,4836.00
2018-06-11T12:02:04.833Z,4776.00
2018-06-11T12:03:04.843Z,4676.00
2018-06-11T12:04:04.855Z,4612.00
2018-06-11T12:05:04.868Z,4544.00
2018-06-11T12:06:05.179Z,4456.00
2018-06-11T12:07:04.889Z,4344.00
2018-06-11T12:08:04.902Z,4228.00
2018-06-11T12:09:04.912Z,4108.00
2018-06-11T12:10:04.925Z,4004.00
2018-06-11T12:11:04.935Z,3884.00
2018-06-11T12:12:05.060Z,3780.00
2018-06-11T12:13:05.105Z,3672.00
2018-06-11T12:14:04.971Z,3564.00
2018-06-11T12:15:04.979Z,3464.00
2018-06-11T12:16:04.988Z,3348.00
2018-06-11T12:17:05.124Z,3220.00
2018-06-11T12:18:05.264Z,3088.00
2018-06-11T12:19:05.134Z,2928.00
2018-06-11T12:20:05.031Z,2756.00
2018-06-11T12:21:05.041Z,2576.00
2018-06-11T12:22:05.052Z,2396.00
2018-06-11T12:23:05.063Z,2208.00